createdAt,value
2023-06-11T00:01:53.818Z,91104.50
2023-06-11T00:04:26.583Z,91104.66
2023-06-11T00:07:02.155Z,91097.22
2023-06-11T00:09:29.191Z,91107.19
2023-06-11T00:11:55.959Z,91097.22
2023-06-11T00:14:23.303Z,91095.16
2023-06-11T00:16:50.306Z,91095.03
2023-06-11T00:19:18.414Z,91095.00
2023-06-11T00:21:45.272Z,91084.94
2023-06-11T00:24:15.591Z,91089.59
2023-06-11T00:26:42.622Z,91097.06
2023-06-11T00:29:09.533Z,91092.84
2023-06-11T00:31:36.252Z,91097.03
2023-06-11T00:34:03.086Z,91085.97
2023-06-11T00:36:30.829Z,91092.81
2023-06-11T00:38:57.774Z,91095.97
2023-06-11T00:41:31.039Z,91093.78
2023-06-11T00:43:58.282Z,91090.97
2023-06-11T00:46:25.752Z,91092.59
2023-06-11T00:48:52.693Z,91095.34
2023-06-11T00:51:19.424Z,91098.22
2023-06-11T00:53:46.164Z,91100.63
2023-06-11T00:56:12.825Z,91097.16
2023-06-11T00:58:41.039Z,91093.84
2023-06-11T01:01:07.788Z,91096.72
2023-06-11T01:03:35.955Z,91097.56
2023-06-11T01:06:12.839Z,91103.06
2023-06-11T01:08:40.736Z,91105.50
2023-06-11T01:11:14.920Z,91106.19
2023-06-11T01:13:41.743Z,91109.19
2023-06-11T01:16:13.124Z,91107.22
2023-06-11T01:18:45.939Z,91107.91
2023-06-11T01:21:18.383Z,91096.19
2023-06-11T01:23:52.722Z,91099.09
2023-06-11T01:26:40.987Z,91094.66
2023-06-11T01:29:09.394Z,91107.22
2023-06-11T01:31:38.790Z,91099.56
2023-06-11T01:34:05.643Z,91101.75
2023-06-11T01:36:35.753Z,91098.88
2023-06-11T01:39:03.156Z,91103.41
2023-06-11T01:41:29.888Z,91103.94
2023-06-11T01:43:56.724Z,91096.13
2023-06-11T01:46:23.649Z,91109.19
2023-06-11T01:48:50.600Z,91105.06
2023-06-11T01:51:17.311Z,91109.00
2023-06-11T01:53:44.275Z,91101.19
2023-06-11T01:56:11.279Z,91105.34
2023-06-11T01:58:38.479Z,91106.13
2023-06-11T02:01:05.281Z,91106.47
2023-06-11T02:03:32.255Z,91099.09
2023-06-11T02:05:59.133Z,91105.94
2023-06-11T02:08:27.612Z,91109.88
2023-06-11T02:10:54.858Z,91116.59
2023-06-11T02:13:21.658Z,91114.94
2023-06-11T02:15:48.434Z,91102.84
2023-06-11T02:18:15.436Z,91111.88
2023-06-11T02:20:42.126Z,91104.28
2023-06-11T02:23:08.997Z,91105.81
2023-06-11T02:25:35.829Z,91106.81
2023-06-11T02:28:03.341Z,91109.19
2023-06-11T02:30:29.982Z,91107.44
2023-06-11T02:32:56.963Z,91107.81
2023-06-11T02:35:23.681Z,91107.81
2023-06-11T02:37:50.564Z,91111.88
2023-06-11T02:40:17.312Z,91102.06
2023-06-11T02:42:44.044Z,91108.88
2023-06-11T02:45:11.449Z,91109.19
2023-06-11T02:47:38.412Z,91111.09
2023-06-11T02:50:05.785Z,91111.69
2023-06-11T02:52:32.628Z,91112.72
2023-06-11T02:54:59.335Z,91110.53
2023-06-11T02:57:26.206Z,91118.91
2023-06-11T02:59:53.023Z,91114.69
2023-06-11T03:02:19.929Z,91120.63
2023-06-11T03:04:46.641Z,91122.59
2023-06-11T03:07:13.545Z,91122.16
2023-06-11T03:09:40.455Z,91126.25
2023-06-11T03:12:08.296Z,91125.69
2023-06-11T03:14:35.036Z,91129.25
2023-06-11T03:17:02.141Z,91130.66
2023-06-11T03:19:28.837Z,91124.72
2023-06-11T03:21:55.890Z,91123.63
2023-06-11T03:24:22.829Z,91125.34
2023-06-11T03:26:49.557Z,91131.63
2023-06-11T03:29:16.337Z,91127.00
2023-06-11T03:31:43.141Z,91122.28
2023-06-11T03:34:09.916Z,91122.97
2023-06-11T03:36:37.585Z,91137.03
2023-06-11T03:39:04.498Z,91136.38
2023-06-11T03:41:31.490Z,91124.16
2023-06-11T03:43:58.279Z,91132.03
2023-06-11T03:46:25.156Z,91127.59
2023-06-11T03:48:51.821Z,91123.19
2023-06-11T03:51:18.526Z,91126.28
2023-06-11T03:53:45.300Z,91128.72
2023-06-11T03:56:11.985Z,91127.03
2023-06-11T03:58:38.701Z,91127.34
2023-06-11T04:01:05.519Z,91129.31
2023-06-11T04:03:32.317Z,91124.97
2023-06-11T04:05:59.179Z,91121.75
2023-06-11T04:08:26.245Z,91122.19
2023-06-11T04:10:53.523Z,91126.53
2023-06-11T04:13:20.416Z,91122.78
2023-06-11T04:15:47.133Z,91129.78
2023-06-11T04:18:13.920Z,91134.06
2023-06-11T04:20:40.723Z,91134.75
2023-06-11T04:23:07.826Z,91119.75
2023-06-11T04:25:37.625Z,91133.13
2023-06-11T04:28:04.557Z,91127.38
2023-06-11T04:30:32.699Z,91130.44
2023-06-11T04:32:59.644Z,91130.47
2023-06-11T04:35:26.450Z,91132.00
2023-06-11T04:37:53.939Z,91124.50
2023-06-11T04:40:20.721Z,91125.69
2023-06-11T04:42:47.580Z,91125.38
2023-06-11T04:45:14.431Z,91122.63
2023-06-11T04:47:41.898Z,91129.28
2023-06-11T04:50:09.232Z,91120.34
2023-06-11T04:52:44.180Z,91130.03
2023-06-11T04:55:14.424Z,91120.53
2023-06-11T04:57:41.580Z,91128.13
2023-06-11T05:00:10.098Z,91115.09
2023-06-11T05:02:38.835Z,91128.16
2023-06-11T05:05:06.867Z,91122.47
2023-06-11T05:07:34.122Z,91133.13
2023-06-11T05:10:01.148Z,91134.75
2023-06-11T05:12:27.921Z,91139.66
2023-06-11T05:14:54.565Z,91139.72
2023-06-11T05:17:21.379Z,91135.72
2023-06-11T05:19:48.212Z,91131.41
2023-06-11T05:22:14.881Z,91134.47
2023-06-11T05:24:44.022Z,91137.63
2023-06-11T05:27:10.846Z,91131.13
2023-06-11T05:29:39.134Z,91133.59
2023-06-11T05:32:06.873Z,91137.53
2023-06-11T05:34:34.388Z,91145.81
2023-06-11T05:37:02.285Z,91141.06
2023-06-11T05:39:29.056Z,91137.34
2023-06-11T05:41:55.856Z,91135.34
2023-06-11T05:44:22.585Z,91145.66
2023-06-11T05:46:49.333Z,91138.38
2023-06-11T05:49:16.065Z,91137.03
2023-06-11T05:51:42.775Z,91141.03
2023-06-11T05:54:09.428Z,91138.72
2023-06-11T05:56:36.144Z,91147.47
2023-06-11T05:59:02.914Z,91143.06
2023-06-11T06:01:29.814Z,91145.47
2023-06-11T06:03:56.716Z,91134.94
2023-06-11T06:06:23.575Z,91140.03
2023-06-11T06:08:50.239Z,91145.63
2023-06-11T06:11:17.025Z,91140.34
2023-06-11T06:13:44.563Z,91138.94
2023-06-11T06:16:11.414Z,91151.25
2023-06-11T06:18:40.107Z,91139.63
2023-06-11T06:21:06.981Z,91147.69
2023-06-11T06:23:33.769Z,91136.81
2023-06-11T06:26:00.516Z,91142.44
2023-06-11T06:28:27.264Z,91130.53
2023-06-11T06:30:54.066Z,91134.06
2023-06-11T06:33:20.886Z,91136.59
2023-06-11T06:35:47.667Z,91140.22
2023-06-11T06:38:14.497Z,91143.03
2023-06-11T06:40:41.462Z,91135.53
2023-06-11T06:43:08.273Z,91141.72
2023-06-11T06:45:36.118Z,91144.91
2023-06-11T06:48:03.192Z,91133.41
2023-06-11T06:50:30.180Z,91132.19
2023-06-11T06:52:56.829Z,91134.34
2023-06-11T06:55:23.551Z,91130.78
2023-06-11T06:57:50.286Z,91141.66
2023-06-11T07:00:18.679Z,91139.91
2023-06-11T07:02:45.521Z,91139.34
2023-06-11T07:05:12.598Z,91136.03
2023-06-11T07:07:41.734Z,91134.91
2023-06-11T07:10:10.809Z,91134.31
2023-06-11T07:12:37.804Z,91137.78
2023-06-11T07:15:05.376Z,91137.34
2023-06-11T07:17:32.235Z,91143.16
2023-06-11T07:19:59.127Z,91130.75
2023-06-11T07:22:25.848Z,91126.84
2023-06-11T07:24:52.609Z,91128.56
2023-06-11T07:27:19.299Z,91124.09
2023-06-11T07:29:45.975Z,91125.19
2023-06-11T07:32:12.688Z,91129.34
2023-06-11T07:34:40.347Z,91130.22
2023-06-11T07:37:07.281Z,91129.19
2023-06-11T07:39:34.246Z,91134.94
2023-06-11T07:42:00.978Z,91126.22
2023-06-11T07:44:27.798Z,91114.59
2023-06-11T07:46:54.487Z,91120.34
2023-06-11T07:49:21.207Z,91122.47
2023-06-11T07:51:47.936Z,91116.16
2023-06-11T07:54:14.732Z,91110.13
2023-06-11T07:56:41.537Z,91111.38
2023-06-11T07:59:08.270Z,91117.97
2023-06-11T08:01:35.049Z,91116.13
2023-06-11T08:04:01.825Z,91119.59
2023-06-11T08:06:28.773Z,91118.50
2023-06-11T08:08:57.477Z,91119.00
2023-06-11T08:11:24.291Z,91113.59
2023-06-11T08:13:51.055Z,91118.91
2023-06-11T08:16:18.912Z,91124.28
2023-06-11T08:18:45.601Z,91124.72
2023-06-11T08:21:12.386Z,91110.19
2023-06-11T08:23:39.970Z,91111.94
2023-06-11T08:26:06.787Z,91116.19
2023-06-11T08:28:33.520Z,91110.13
2023-06-11T08:31:00.278Z,91112.06
2023-06-11T08:33:27.076Z,91116.53
2023-06-11T08:35:53.866Z,91110.97
2023-06-11T08:38:20.607Z,91113.63
2023-06-11T08:40:47.312Z,91115.16
2023-06-11T08:43:14.149Z,91101.44
2023-06-11T08:45:41.626Z,91110.97
2023-06-11T08:48:08.592Z,91105.19
2023-06-11T08:50:35.404Z,91107.75
2023-06-11T08:53:03.786Z,91111.00
2023-06-11T08:55:30.738Z,91113.81
2023-06-11T08:57:57.765Z,91110.88
2023-06-11T09:00:24.511Z,91107.81
2023-06-11T09:02:51.328Z,91100.19
2023-06-11T09:05:18.152Z,91109.25
2023-06-11T09:07:51.609Z,91096.16
2023-06-11T09:10:18.405Z,91095.97
2023-06-11T09:12:45.511Z,91092.81
2023-06-11T09:15:13.612Z,91093.59
2023-06-11T09:17:44.610Z,91098.94
2023-06-11T09:20:13.209Z,91091.75
2023-06-11T09:22:41.574Z,91086.69
2023-06-11T09:25:12.602Z,91096.03
2023-06-11T09:27:40.094Z,91083.06
2023-06-11T09:30:27.867Z,91098.28
2023-06-11T09:32:54.695Z,91086.88
2023-06-11T09:35:22.487Z,91085.53
2023-06-11T09:37:51.634Z,91087.91
2023-06-11T09:40:20.715Z,91082.50
2023-06-11T09:42:48.604Z,91089.78
2023-06-11T09:45:17.508Z,91081.34
2023-06-11T09:47:46.242Z,91089.75
2023-06-11T09:50:19.480Z,91079.31
2023-06-11T09:52:46.530Z,91081.22
2023-06-11T09:55:13.664Z,91082.84
2023-06-11T09:57:41.471Z,91073.72
2023-06-11T10:00:11.332Z,91084.09
2023-06-11T10:02:41.856Z,91075.81
2023-06-11T10:05:09.746Z,91082.56
2023-06-11T10:07:47.476Z,91069.31
2023-06-11T10:10:17.125Z,91076.34
2023-06-11T10:12:52.350Z,91071.78
2023-06-11T10:15:19.819Z,91066.06
2023-06-11T10:17:50.863Z,91070.19
2023-06-11T10:20:28.585Z,91063.97
2023-06-11T10:23:11.001Z,91059.41
2023-06-11T10:25:40.940Z,91063.06
2023-06-11T10:28:08.708Z,91059.81
2023-06-11T10:30:35.634Z,91055.03
2023-06-11T10:33:02.420Z,91057.47
2023-06-11T10:35:33.842Z,91062.53
2023-06-11T10:38:07.250Z,91049.19
2023-06-11T10:40:38.000Z,91056.22
2023-06-11T10:43:20.696Z,91049.47
2023-06-11T10:45:49.896Z,91047.19
2023-06-11T10:48:18.742Z,91055.63
2023-06-11T10:50:45.446Z,91052.19
2023-06-11T10:53:14.582Z,91055.00
2023-06-11T10:55:45.196Z,91051.94
2023-06-11T10:58:24.253Z,91048.59
2023-06-11T11:00:52.925Z,91042.72
2023-06-11T11:03:22.998Z,91040.16
2023-06-11T11:05:53.548Z,91039.94
2023-06-11T11:08:24.874Z,91031.22
2023-06-11T11:10:56.813Z,91035.59
2023-06-11T11:13:23.952Z,91032.91
2023-06-11T11:15:51.488Z,91040.00
2023-06-11T11:18:18.385Z,91023.28
2023-06-11T11:20:46.058Z,91029.06
2023-06-11T11:23:12.766Z,91026.94
2023-06-11T11:25:40.086Z,91027.63
2023-06-11T11:28:07.122Z,91029.47
2023-06-11T11:30:33.898Z,91023.22
2023-06-11T11:33:00.748Z,91022.13
2023-06-11T11:35:29.880Z,91017.88
2023-06-11T11:37:56.684Z,91021.03
2023-06-11T11:40:23.506Z,91016.69
2023-06-11T11:42:51.208Z,91014.41
2023-06-11T11:45:18.666Z,91020.41
2023-06-11T11:47:47.666Z,91015.22
2023-06-11T11:50:35.924Z,91014.44
2023-06-11T11:53:07.487Z,91009.63
2023-06-11T11:55:51.589Z,91020.41
2023-06-11T11:58:23.317Z,91007.81
2023-06-11T12:00:52.058Z,91018.06
2023-06-11T12:03:22.537Z,91016.06
2023-06-11T12:06:16.115Z,91018.16
2023-06-11T12:08:43.059Z,91009.81
2023-06-11T12:11:09.814Z,91016.34
2023-06-11T12:13:36.647Z,91007.91
2023-06-11T12:16:05.220Z,91004.63
2023-06-11T12:18:33.573Z,91007.22
2023-06-11T12:21:00.268Z,91003.31
2023-06-11T12:23:27.200Z,91001.78
2023-06-11T12:25:54.021Z,91000.72
2023-06-11T12:28:21.248Z,90998.81
2023-06-11T12:30:48.021Z,90997.94
2023-06-11T12:33:17.098Z,90995.59
2023-06-11T12:35:45.380Z,90993.22
2023-06-11T12:38:12.266Z,90995.44
2023-06-11T12:40:38.858Z,90999.31
2023-06-11T12:43:05.529Z,91002.97
2023-06-11T12:45:36.765Z,91011.75
2023-06-11T12:48:04.074Z,91002.94
2023-06-11T12:50:30.918Z,91005.78
2023-06-11T12:52:57.962Z,91011.13
2023-06-11T12:55:25.778Z,91011.53
2023-06-11T12:57:52.696Z,91006.69
2023-06-11T13:00:19.856Z,91007.44
2023-06-11T13:02:46.617Z,91004.50
2023-06-11T13:05:13.659Z,91012.50
2023-06-11T13:07:40.504Z,91006.75
2023-06-11T13:10:07.616Z,91016.81
2023-06-11T13:12:34.444Z,91006.75
2023-06-11T13:15:01.208Z,91008.25
2023-06-11T13:17:28.212Z,91004.16
2023-06-11T13:19:58.579Z,91008.00
2023-06-11T13:22:25.453Z,91002.16
2023-06-11T13:24:52.902Z,91006.94
2023-06-11T13:27:19.716Z,91009.91
2023-06-11T13:29:46.730Z,91008.22
2023-06-11T13:32:13.577Z,91012.09
2023-06-11T13:34:40.414Z,91019.59
2023-06-11T13:37:07.529Z,91026.00
2023-06-11T13:39:34.490Z,91022.84
2023-06-11T13:42:01.711Z,91022.00
2023-06-11T13:44:28.658Z,91027.78
2023-06-11T13:46:55.645Z,91025.63
2023-06-11T13:49:24.161Z,91022.00
2023-06-11T13:51:51.953Z,91037.66
2023-06-11T13:54:21.577Z,91026.44
2023-06-11T13:56:48.347Z,91033.53
2023-06-11T13:59:15.054Z,91034.69
2023-06-11T14:01:41.832Z,91025.56
2023-06-11T14:04:11.613Z,91030.53
2023-06-11T14:06:38.241Z,91029.94
2023-06-11T14:09:05.469Z,91030.66
2023-06-11T14:11:32.358Z,91027.78
2023-06-11T14:13:59.548Z,91023.72
2023-06-11T14:16:26.727Z,91033.25
2023-06-11T14:18:53.593Z,91040.13
2023-06-11T14:21:20.453Z,91037.31
2023-06-11T14:23:47.782Z,91040.69
2023-06-11T14:26:14.502Z,91044.78
2023-06-11T14:28:41.086Z,91040.16
2023-06-11T14:31:07.812Z,91048.69
2023-06-11T14:33:34.509Z,91038.66
2023-06-11T14:36:06.038Z,91041.06
2023-06-11T14:38:36.033Z,91039.91
2023-06-11T14:41:02.775Z,91047.06
2023-06-11T14:43:29.540Z,91051.56
2023-06-11T14:45:56.282Z,91046.47
2023-06-11T14:48:23.064Z,91059.00
2023-06-11T14:50:49.745Z,91047.44
2023-06-11T14:53:16.482Z,91053.13
2023-06-11T14:55:44.019Z,91054.13
2023-06-11T14:58:10.788Z,91054.97
2023-06-11T15:00:37.473Z,91042.16
2023-06-11T15:03:04.261Z,91042.19
2023-06-11T15:05:31.078Z,91035.38
2023-06-11T15:07:57.793Z,91041.09
2023-06-11T15:10:25.291Z,91033.13
2023-06-11T15:12:52.114Z,91036.00
2023-06-11T15:15:18.962Z,91046.38
2023-06-11T15:17:45.789Z,91044.81
2023-06-11T15:20:12.853Z,91050.56
2023-06-11T15:22:41.701Z,91060.41
2023-06-11T15:25:10.312Z,91063.88
2023-06-11T15:27:37.161Z,91073.38
2023-06-11T15:30:04.966Z,91068.69
2023-06-11T15:32:31.839Z,91078.91
2023-06-11T15:34:58.793Z,91084.78
2023-06-11T15:37:25.578Z,91093.97
2023-06-11T15:39:52.404Z,91087.56
2023-06-11T15:42:19.472Z,91097.56
2023-06-11T15:44:46.437Z,91099.34
2023-06-11T15:47:13.301Z,91092.81
2023-06-11T15:49:40.053Z,91089.06
2023-06-11T15:52:07.248Z,91103.66
2023-06-11T15:54:34.364Z,91099.84
2023-06-11T15:57:01.732Z,91100.47
2023-06-11T15:59:28.598Z,91090.84
2023-06-11T16:01:55.399Z,91090.88
2023-06-11T16:04:24.456Z,91094.38
2023-06-11T16:06:51.258Z,91095.84
2023-06-11T16:09:18.073Z,91098.56
2023-06-11T16:11:44.874Z,91092.06
2023-06-11T16:14:11.764Z,91094.47
2023-06-11T16:16:38.733Z,91101.34
2023-06-11T16:19:05.668Z,91095.53
2023-06-11T16:21:32.455Z,91105.91
2023-06-11T16:23:59.273Z,91100.56
2023-06-11T16:26:26.958Z,91110.88
2023-06-11T16:28:56.314Z,91106.66
2023-06-11T16:31:23.431Z,91104.41
2023-06-11T16:33:58.430Z,91098.97
2023-06-11T16:36:27.114Z,91107.81
2023-06-11T16:38:53.847Z,91102.06
2023-06-11T16:41:22.050Z,91103.63
2023-06-11T16:43:52.113Z,91107.44
2023-06-11T16:46:19.336Z,91106.34
2023-06-11T16:48:47.014Z,91111.66
2023-06-11T16:51:14.245Z,91118.22
2023-06-11T16:53:42.111Z,91118.59
2023-06-11T16:56:08.772Z,91112.13
2023-06-11T16:58:35.862Z,91123.19
2023-06-11T17:01:02.642Z,91122.78
2023-06-11T17:03:29.354Z,91130.06
2023-06-11T17:05:56.149Z,91128.91
2023-06-11T17:08:22.917Z,91125.09
2023-06-11T17:10:49.631Z,91128.94
2023-06-11T17:13:16.349Z,91130.44
2023-06-11T17:15:43.007Z,91127.00
2023-06-11T17:18:09.748Z,91129.69
2023-06-11T17:20:40.611Z,91134.16
2023-06-11T17:23:11.434Z,91129.66
2023-06-11T17:25:38.135Z,91144.97
2023-06-11T17:28:05.053Z,91141.91
2023-06-11T17:30:31.970Z,91141.91
2023-06-11T17:33:00.576Z,91137.97
2023-06-11T17:35:27.936Z,91144.81
2023-06-11T17:37:56.656Z,91145.69
2023-06-11T17:40:28.656Z,91144.47
2023-06-11T17:42:58.813Z,91148.25
2023-06-11T17:45:26.764Z,91152.13
2023-06-11T17:47:54.711Z,91146.72
2023-06-11T17:50:21.803Z,91154.34
2023-06-11T17:52:48.494Z,91156.25
2023-06-11T17:55:15.580Z,91152.47
2023-06-11T17:57:46.786Z,91154.84
2023-06-11T18:00:14.854Z,91150.94
2023-06-11T18:02:41.997Z,91156.28
2023-06-11T18:05:09.288Z,91151.72
2023-06-11T18:07:36.561Z,91152.50
2023-06-11T18:10:03.842Z,91153.25
2023-06-11T18:12:30.900Z,91149.41
2023-06-11T18:14:57.507Z,91150.19
2023-06-11T18:17:25.515Z,91150.13
2023-06-11T18:19:52.475Z,91157.03
2023-06-11T18:22:24.374Z,91150.94
2023-06-11T18:24:51.244Z,91155.09
2023-06-11T18:27:18.004Z,91154.63
2023-06-11T18:29:44.858Z,91151.97
2023-06-11T18:32:11.922Z,91156.50
2023-06-11T18:34:38.757Z,91161.44
2023-06-11T18:37:05.905Z,91151.38
2023-06-11T18:39:32.696Z,91152.84
2023-06-11T18:42:01.725Z,91153.69
2023-06-11T18:44:28.593Z,91154.34
2023-06-11T18:47:01.631Z,91158.19
2023-06-11T18:49:29.786Z,91163.25
2023-06-11T18:51:56.486Z,91173.00
2023-06-11T18:54:23.286Z,91171.31
2023-06-11T18:56:50.020Z,91173.72
2023-06-11T18:59:18.634Z,91178.84
2023-06-11T19:01:45.418Z,91187.31
2023-06-11T19:04:12.412Z,91186.16
2023-06-11T19:06:39.187Z,91190.19
2023-06-11T19:09:06.026Z,91190.56
2023-06-11T19:11:32.702Z,91193.78
2023-06-11T19:13:59.415Z,91205.56
2023-06-11T19:16:26.208Z,91206.31
2023-06-11T19:18:52.917Z,91211.19
2023-06-11T19:21:24.042Z,91214.25
2023-06-11T19:23:50.835Z,91213.19
2023-06-11T19:26:17.689Z,91205.56
2023-06-11T19:28:44.399Z,91207.13
2023-06-11T19:31:11.137Z,91207.47
2023-06-11T19:33:38.792Z,91213.81
2023-06-11T19:36:05.825Z,91212.47
2023-06-11T19:38:32.682Z,91210.00
2023-06-11T19:40:59.299Z,91203.13
2023-06-11T19:43:26.183Z,91203.81
2023-06-11T19:45:52.964Z,91202.38
2023-06-11T19:48:22.087Z,91208.31
2023-06-11T19:50:48.923Z,91205.16
2023-06-11T19:53:15.749Z,91198.81
2023-06-11T19:55:45.266Z,91193.41
2023-06-11T19:58:12.134Z,91193.22
2023-06-11T20:00:38.769Z,91192.06
2023-06-11T20:03:05.523Z,91189.94
2023-06-11T20:05:33.642Z,91191.00
2023-06-11T20:08:02.228Z,91191.31
2023-06-11T20:10:30.198Z,91192.84
2023-06-11T20:12:56.853Z,91197.63
2023-06-11T20:15:23.530Z,91191.41
2023-06-11T20:17:50.396Z,91200.06
2023-06-11T20:20:17.262Z,91194.66
2023-06-11T20:22:43.878Z,91193.69
2023-06-11T20:25:10.649Z,91192.19
2023-06-11T20:27:37.580Z,91194.38
2023-06-11T20:30:04.589Z,91185.28
2023-06-11T20:32:31.430Z,91191.84
2023-06-11T20:34:58.087Z,91183.97
2023-06-11T20:37:24.815Z,91192.03
2023-06-11T20:39:51.565Z,91193.13
2023-06-11T20:42:18.452Z,91196.88
2023-06-11T20:44:45.163Z,91201.88
2023-06-11T20:47:12.244Z,91196.41
2023-06-11T20:49:39.088Z,91189.78
2023-06-11T20:52:06.527Z,91185.81
2023-06-11T20:54:33.262Z,91193.31
2023-06-11T20:56:59.891Z,91189.56
2023-06-11T20:59:26.555Z,91196.03
2023-06-11T21:01:53.366Z,91183.88
2023-06-11T21:04:20.207Z,91194.44
2023-06-11T21:06:46.950Z,91187.16
2023-06-11T21:09:13.610Z,91181.22
2023-06-11T21:11:40.309Z,91179.50
2023-06-11T21:14:14.093Z,91171.09
2023-06-11T21:16:41.721Z,91176.66
2023-06-11T21:19:08.468Z,91176.28
2023-06-11T21:21:35.305Z,91177.91
2023-06-11T21:24:03.612Z,91171.47
2023-06-11T21:26:30.463Z,91182.34
2023-06-11T21:28:57.810Z,91174.34
2023-06-11T21:31:24.666Z,91175.69
2023-06-11T21:33:51.354Z,91173.28
2023-06-11T21:36:18.357Z,91171.69
2023-06-11T21:38:45.013Z,91169.25
2023-06-11T21:41:11.733Z,91164.47
2023-06-11T21:43:38.440Z,91174.69
2023-06-11T21:46:05.197Z,91166.44
2023-06-11T21:48:31.906Z,91166.81
2023-06-11T21:50:58.570Z,91159.81
2023-06-11T21:53:25.387Z,91159.59
2023-06-11T21:55:52.150Z,91168.69
2023-06-11T21:58:18.848Z,91169.63
2023-06-11T22:00:45.847Z,91158.31
2023-06-11T22:03:15.422Z,91159.84
2023-06-11T22:05:42.145Z,91157.78
2023-06-11T22:08:08.859Z,91157.16
2023-06-11T22:10:35.500Z,91162.88
2023-06-11T22:13:02.158Z,91157.09
2023-06-11T22:15:28.882Z,91146.25
2023-06-11T22:17:55.678Z,91137.19
2023-06-11T22:20:26.415Z,91143.06
2023-06-11T22:22:53.167Z,91148.63
2023-06-11T22:25:19.900Z,91140.94
2023-06-11T22:27:47.170Z,91144.97
2023-06-11T22:30:14.306Z,91140.88
2023-06-11T22:32:41.384Z,91132.31
2023-06-11T22:35:08.631Z,91132.84
2023-06-11T22:37:37.288Z,91133.25
2023-06-11T22:40:06.079Z,91135.06
2023-06-11T22:42:33.281Z,91129.41
2023-06-11T22:44:59.943Z,91134.13
2023-06-11T22:47:30.121Z,91131.06
2023-06-11T22:49:57.564Z,91125.09
2023-06-11T22:52:24.355Z,91125.13
2023-06-11T22:54:51.121Z,91131.72
2023-06-11T22:57:17.749Z,91122.44
2023-06-11T22:59:44.422Z,91128.41
2023-06-11T23:02:11.251Z,91129.84
2023-06-11T23:04:40.441Z,91126.44
2023-06-11T23:07:07.772Z,91124.38
2023-06-11T23:09:34.466Z,91123.34
2023-06-11T23:12:01.415Z,91116.34
2023-06-11T23:14:28.185Z,91111.34
2023-06-11T23:16:59.540Z,91111.69
2023-06-11T23:19:26.906Z,91108.69
2023-06-11T23:21:57.492Z,91104.09
2023-06-11T23:24:27.674Z,91102.47
2023-06-11T23:26:57.606Z,91113.41
2023-06-11T23:29:24.910Z,91107.06
2023-06-11T23:31:51.854Z,91108.78
2023-06-11T23:34:18.768Z,91103.09
2023-06-11T23:36:45.858Z,91106.69
2023-06-11T23:39:12.616Z,91109.16
2023-06-11T23:41:39.412Z,91097.00
2023-06-11T23:44:06.244Z,91108.75
2023-06-11T23:46:36.568Z,91108.25
2023-06-11T23:49:03.548Z,91109.63
2023-06-11T23:51:31.251Z,91107.38
2023-06-11T23:53:58.500Z,91109.78
2023-06-11T23:56:25.763Z,91117.25
2023-06-11T23:58:52.452Z,91112.72
